Eminence, MO

2:23 PM CST on February 01, 2015 (GMT -0600)
Rolla National | Change Station
CLOSE
Current Station
Airport
Location: Rolla,
Elevation: 1145 ft
Nearby Weather Stations

Elev 1145 ft 38.13 °N, 91.77 °W | Updated 30 minutes ago

Rain
Rain
41 °F
Feels Like 35 °F
N
10
Wind Variable Wind from West

Today
High -- | Low -- °F
--% Chance of Precip.
Yesterday
High -- | Low -- °F
Precip. -- in
7:08 AM 5:30 PM
Waxing Gibbous, 96% visible
Pressure 29.65 in
Visibility 7.0 miles
Clouds Mostly Cloudy 500 ft
Mostly Cloudy 1000 ft
Overcast 1700 ft
Windchill 35 °F
Dew Point 38 °F
Humidity 89%
Rainfall 0.70 in
Snow Depth Not available.
UV 1 out of 12
Pollen .10 out of 12
Air Quality Not available.
Flu Activity Not available.
METAR KVIH 011953Z AUTO 28009KT 7SM BKN005 BKN010 OVC017 05/03 A2964 RMK AO2 RAE1858B18E39 CIG 002V008 SLP041 P0001 T00500033 $

More Conditions Fewer Conditions

Pressure 29.65 in
Visibility 7.0 miles
Clouds Mostly Cloudy 500 ft
Mostly Cloudy 1000 ft
Overcast 1700 ft
Windchill 35 °F
Dew Point 38 °F
Humidity 89%
Rainfall 0.70 in
Snow Depth Not available.
UV 1 out of 12
Pollen .10 out of 12
Air Quality Not available.
Flu Activity Not available.
METAR KVIH 011953Z AUTO 28009KT 7SM BKN005 BKN010 OVC017 05/03 A2964 RMK AO2 RAE1858B18E39 CIG 002V008 SLP041 P0001 T00500033 $

More Conditions Fewer Conditions

10-Day Weather Forecast

Almanac

Astronomy

Feb. 01, 2015 Rise Set
Actual Time
Civil Twilight
Nautical Twilight
Astronomical Twilight
Moon
Length of Visible Light
Length of Day
Tomorrow will be .
, % of the Moon is Illuminated

Today's Extremes

State Highs State Lows

Community

WunderPhotos

Upload Photos

1,792,497 photos uploaded!

WunderBlogs® & News

Nearby

Air Quality

  Air Quality AQ Index Pollutant
Not available.

Snow Depth

Station Depth Elevation

Earthquake Activity

City Distance Mag. Time & Date
Minimum magnitude displayed is 2.5.

Coastal Water Temperatures

Place Temperature

Nearby Weather Stations